Terminal Aerodrome Forecast
Issued by NWS

Home | Current Version | Previous Version | Text Only | Print | Product List | Glossary On
Versions: 1 2 3 4 5 6 7 8 9 10 11 12 13 14
492
FTUS45 KVEF 211729
TAFDAG
TAF
KDAG 211729Z 2118/2218 VRB05KT P6SM BKN080 OVC200
     FM211900 24010KT P6SM BKN080 OVC200
     FM212100 25016G25KT P6SM SCT080 BKN200=

USA.gov is the U.S. government's official web portal to all federal, state and local government web resources and services.